Time;durP1;ratioP1;P1;durP2;ratioP2;P2;SDS_P1;SDS_P2;PMS_P1;PMS_P2;Temp;Humidity;BMP_temperature;BMP_pressure;BME280_temperature;BME280_humidity;BME280_pressure;Samples;Min_cycle;Max_cycle;Signal;HPM_P1;HPM_P2
2021/05/03 00:01:45;;;;;;;6.10;3.40;;;7.20;99.50;;;;;;5062957;28;20482;-68
2021/05/03 00:04:30;;;;;;;5.80;3.10;;;6.90;99.40;;;;;;5059364;28;20469;-70
2021/05/03 00:07:15;;;;;;;5.40;3.40;;;6.80;99.90;;;;;;5066828;28;20462;-71
2021/05/03 00:10:01;;;;;;;8.63;3.47;;;6.80;99.90;;;;;;5064530;28;20445;-68
2021/05/03 00:12:46;;;;;;;8.70;3.17;;;6.60;99.90;;;;;;5066168;28;20469;-70
2021/05/03 00:15:31;;;;;;;6.57;3.37;;;6.50;99.90;;;;;;5066149;28;20477;-70
2021/05/03 00:18:16;;;;;;;6.20;3.73;;;6.50;99.90;;;;;;5068474;28;20448;-71
2021/05/03 00:21:02;;;;;;;4.97;2.90;;;6.20;99.90;;;;;;5073966;28;20449;-70
2021/05/03 00:23:47;;;;;;;4.80;3.40;;;6.20;99.90;;;;;;5066433;28;20442;-71
2021/05/03 00:26:34;;;;;;;4.07;2.95;;;6.10;99.90;;;;;;5067214;28;21110;-70
2021/05/03 00:29:18;;;;;;;5.53;3.43;;;6.10;99.90;;;;;;5067536;28;20227;-69
2021/05/03 00:32:04;;;;;;;9.70;3.40;;;6.20;99.90;;;;;;5075596;28;20501;-70
2021/05/03 00:34:50;;;;;;;4.10;2.90;;;6.20;99.90;;;;;;5062932;28;20845;-68
2021/05/03 00:37:35;;;;;;;5.13;3.30;;;6.10;99.90;;;;;;5067028;28;20466;-70
2021/05/03 00:40:20;;;;;;;5.47;3.60;;;6.30;99.90;;;;;;5067258;28;20517;-69
2021/05/03 00:43:06;;;;;;;5.70;4.33;;;6.20;99.90;;;;;;5064157;28;20824;-71
2021/05/03 00:45:51;;;;;;;4.07;3.20;;;6.00;99.90;;;;;;5063644;28;20449;-70
2021/05/03 00:48:36;;;;;;;4.57;3.17;;;5.80;99.90;;;;;;5065522;28;20470;-71
2021/05/03 00:51:21;;;;;;;4.00;2.90;;;5.80;99.90;;;;;;5067834;28;20570;-71
2021/05/03 00:54:06;;;;;;;4.87;2.87;;;5.90;99.90;;;;;;5064589;28;20454;-70
2021/05/03 00:56:51;;;;;;;5.50;3.37;;;5.80;99.90;;;;;;5067049;28;21114;-70
2021/05/03 00:59:38;;;;;;;4.97;2.80;;;5.80;99.90;;;;;;5063400;28;20553;-69
2021/05/03 01:02:23;;;;;;;5.90;3.30;;;5.80;99.90;;;;;;5063336;28;20483;-70
2021/05/03 01:05:10;;;;;;;4.73;2.83;;;5.90;99.90;;;;;;5064092;28;20509;-70
2021/05/03 01:07:56;;;;;;;11.33;3.60;;;5.70;99.90;;;;;;5065942;28;20930;-71
2021/05/03 01:10:40;;;;;;;4.80;3.20;;;5.70;99.90;;;;;;5060524;28;20577;-70
2021/05/03 01:13:26;;;;;;;11.43;3.07;;;5.80;99.90;;;;;;5059090;28;20429;-70
2021/05/03 01:16:11;;;;;;;4.00;2.90;;;5.70;99.90;;;;;;5064228;28;20486;-71
2021/05/03 01:18:56;;;;;;;4.80;3.57;;;5.70;99.90;;;;;;5065762;28;20469;-68
2021/05/03 01:21:43;;;;;;;8.57;3.53;;;5.70;99.90;;;;;;5063759;28;21172;-71
2021/05/03 01:24:28;;;;;;;5.67;3.07;;;5.60;99.90;;;;;;5062276;28;20673;-71
2021/05/03 01:27:13;;;;;;;7.57;3.03;;;5.40;99.90;;;;;;5063796;28;21134;-70
2021/05/03 01:29:58;;;;;;;6.67;3.10;;;5.30;99.90;;;;;;5063569;28;20493;-70
2021/05/03 01:32:43;;;;;;;6.70;4.00;;;5.20;99.90;;;;;;5072133;28;20494;-70
2021/05/03 01:35:29;;;;;;;7.93;3.10;;;5.30;99.90;;;;;;5061987;28;20300;-70
2021/05/03 01:38:16;;;;;;;4.03;3.20;;;5.40;99.90;;;;;;5064828;28;20442;-71
2021/05/03 01:41:01;;;;;;;4.80;3.13;;;5.50;99.90;;;;;;5061358;28;21066;-69
2021/05/03 01:43:46;;;;;;;5.03;3.37;;;5.50;99.90;;;;;;5062050;28;20450;-70
2021/05/03 01:46:33;;;;;;;4.40;3.47;;;5.60;99.90;;;;;;5063437;28;20977;-70
2021/05/03 01:49:19;;;;;;;7.27;3.30;;;5.70;99.90;;;;;;5062581;28;20330;-71
2021/05/03 01:52:04;;;;;;;7.00;3.37;;;5.90;99.90;;;;;;5062484;28;20960;-70
2021/05/03 01:54:52;;;;;;;3.85;3.45;;;6.00;99.90;;;;;;5063377;28;20474;-71
2021/05/03 01:57:37;;;;;;;5.40;4.00;;;6.10;99.90;;;;;;5063030;28;20750;-71
2021/05/03 02:00:22;;;;;;;5.03;3.60;;;5.90;99.90;;;;;;5063238;28;20454;-70
2021/05/03 02:03:17;;;;;;;5.32;3.80;;;5.90;99.90;;;;;;5065510;28;20550;-71
2021/05/03 02:06:04;;;;;;;7.93;4.07;;;6.00;99.90;;;;;;5062738;28;20911;-70
2021/05/03 02:08:49;;;;;;;5.80;3.75;;;6.00;99.90;;;;;;5064904;28;20294;-70
2021/05/03 02:11:35;;;;;;;8.40;3.90;;;6.00;99.90;;;;;;5064793;28;20203;-70
2021/05/03 02:14:20;;;;;;;4.43;3.33;;;6.10;99.90;;;;;;5068077;28;20486;-70
2021/05/03 02:17:05;;;;;;;5.10;3.65;;;6.00;99.90;;;;;;5068617;28;20290;-71
2021/05/03 02:19:50;;;;;;;6.80;3.67;;;5.90;99.90;;;;;;5066906;28;20250;-70
2021/05/03 02:22:36;;;;;;;5.38;3.75;;;5.70;99.90;;;;;;5069248;28;20454;-68
2021/05/03 02:25:21;;;;;;;6.07;4.20;;;5.40;99.90;;;;;;5067651;28;20212;-70
2021/05/03 02:28:06;;;;;;;7.67;4.47;;;5.40;99.90;;;;;;5064898;28;21070;-69
2021/05/03 02:30:51;;;;;;;4.30;3.20;;;5.50;99.90;;;;;;5065819;28;20512;-70
2021/05/03 02:33:36;;;;;;;3.85;3.28;;;5.60;99.90;;;;;;5063958;28;20450;-70
2021/05/03 02:36:21;;;;;;;7.22;4.30;;;5.50;99.90;;;;;;5069823;28;20274;-70
2021/05/03 02:39:07;;;;;;;4.28;3.75;;;5.40;99.90;;;;;;5070153;28;20235;-69
2021/05/03 02:41:52;;;;;;;4.50;4.05;;;5.40;99.90;;;;;;5068920;28;20270;-69
2021/05/03 02:44:39;;;;;;;7.22;3.60;;;5.50;99.90;;;;;;5062360;28;20205;-71
2021/05/03 02:47:24;;;;;;;5.10;4.23;;;5.20;99.90;;;;;;5067105;28;20747;-70
2021/05/03 02:50:11;;;;;;;6.40;4.00;;;5.00;99.90;;;;;;5067505;28;20439;-69
2021/05/03 02:52:56;;;;;;;6.33;4.17;;;5.00;99.90;;;;;;5068466;28;20438;-70
2021/05/03 02:55:41;;;;;;;6.73;3.90;;;5.00;99.90;;;;;;5068522;28;20420;-68
2021/05/03 02:58:26;;;;;;;7.60;4.53;;;4.90;99.90;;;;;;5075721;28;20446;-70
2021/05/03 03:01:12;;;;;;;5.37;3.77;;;5.10;99.90;;;;;;5074991;28;20449;-70
2021/05/03 03:03:57;;;;;;;6.70;4.43;;;5.10;99.90;;;;;;5068187;28;20879;-70
2021/05/03 03:06:42;;;;;;;5.60;3.90;;;4.90;99.90;;;;;;5067257;28;21046;-70
2021/05/03 03:09:28;;;;;;;11.15;4.10;;;4.80;99.90;;;;;;5064849;28;20498;-70
2021/05/03 03:12:13;;;;;;;8.52;4.80;;;4.90;99.90;;;;;;5065094;28;20256;-71
2021/05/03 03:14:58;;;;;;;7.03;4.20;;;5.20;99.90;;;;;;5074104;28;20242;-71
2021/05/03 03:17:48;;;;;;;5.57;3.60;;;5.30;99.90;;;;;;5070624;28;20489;-70
2021/05/03 03:20:33;;;;;;;5.80;4.10;;;5.10;99.90;;;;;;5068183;28;20438;-70
2021/05/03 03:23:18;;;;;;;6.07;4.50;;;4.80;99.90;;;;;;5072091;28;20445;-71
2021/05/03 03:26:04;;;;;;;6.30;4.15;;;4.90;99.90;;;;;;5067495;28;20363;-71
2021/05/03 03:28:49;;;;;;;6.68;4.03;;;5.00;99.90;;;;;;5067538;28;20561;-71
2021/05/03 03:31:34;;;;;;;8.60;4.40;;;5.00;99.90;;;;;;5069188;28;20243;-70
2021/05/03 03:34:21;;;;;;;5.38;3.95;;;5.20;99.90;;;;;;5068717;28;20450;-70
2021/05/03 03:37:06;;;;;;;7.17;4.80;;;5.30;99.90;;;;;;5068350;28;20589;-69
2021/05/03 03:39:51;;;;;;;4.47;3.50;;;5.40;99.90;;;;;;5076284;28;20525;-70
2021/05/03 03:42:37;;;;;;;8.55;4.45;;;5.30;99.90;;;;;;5063502;28;20551;-69
2021/05/03 03:45:22;;;;;;;4.70;3.70;;;5.40;99.90;;;;;;5074109;28;20359;-70
2021/05/03 03:48:08;;;;;;;7.03;3.80;;;5.60;99.90;;;;;;5069166;28;20482;-69
2021/05/03 03:50:54;;;;;;;6.33;4.20;;;5.70;99.90;;;;;;5067316;28;20442;-70
2021/05/03 03:53:39;;;;;;;5.30;3.60;;;5.80;99.90;;;;;;5068084;28;20453;-71
2021/05/03 03:56:26;;;;;;;8.00;4.70;;;5.80;99.90;;;;;;5068793;28;20466;-70
2021/05/03 03:59:13;;;;;;;6.50;4.60;;;5.90;99.90;;;;;;5067657;28;20434;-71
2021/05/03 04:01:58;;;;;;;5.50;4.40;;;5.90;99.90;;;;;;5067713;28;21001;-70
2021/05/03 04:04:48;;;;;;;5.10;3.77;;;6.00;99.90;;;;;;5068131;28;20523;-70
2021/05/03 04:07:40;;;;;;;6.60;4.30;;;6.10;99.90;;;;;;5073947;28;20600;-70
2021/05/03 04:10:36;;;;;;;8.83;3.67;;;6.10;99.90;;;;;;5067535;28;20535;-69
2021/05/03 04:25:37;;;;;;;6.43;4.80;;;5.50;99.90;;;;;;5057567;28;20542;-69
2021/05/03 04:28:22;;;;;;;13.10;5.80;;;5.60;99.90;;;;;;5065661;28;20881;-69
2021/05/03 04:31:08;;;;;;;10.07;5.13;;;5.70;99.90;;;;;;5066465;28;20484;-70
2021/05/03 04:33:54;;;;;;;6.23;4.53;;;5.80;99.90;;;;;;5062064;28;20975;-71
2021/05/03 04:36:39;;;;;;;9.93;5.87;;;5.80;99.90;;;;;;5059280;28;20470;-70
2021/05/03 04:39:24;;;;;;;5.53;4.80;;;6.00;99.90;;;;;;5066039;28;20442;-70
2021/05/03 04:42:10;;;;;;;12.30;5.10;;;5.90;99.90;;;;;;5069827;28;20450;-70
2021/05/03 04:44:55;;;;;;;6.10;5.07;;;5.80;99.90;;;;;;5068003;28;20539;-70
2021/05/03 04:47:41;;;;;;;8.90;4.90;;;5.80;99.90;;;;;;5066299;28;20540;-71
2021/05/03 04:50:26;;;;;;;6.43;5.23;;;5.90;99.90;;;;;;5074165;28;20943;-71
2021/05/03 04:53:11;;;;;;;6.13;4.70;;;6.00;99.90;;;;;;5072873;28;20959;-69
2021/05/03 04:55:57;;;;;;;11.90;5.80;;;6.00;99.90;;;;;;5066149;28;20557;-70
2021/05/03 04:58:42;;;;;;;9.03;5.50;;;5.80;99.90;;;;;;5065914;28;21003;-70
2021/05/03 05:01:28;;;;;;;6.50;5.00;;;5.90;99.90;;;;;;5068060;28;20534;-71
2021/05/03 05:04:13;;;;;;;5.80;5.20;;;6.10;99.90;;;;;;5066370;28;20446;-70
2021/05/03 05:06:59;;;;;;;7.77;5.27;;;6.30;99.90;;;;;;5066745;28;21003;-69
2021/05/03 05:09:45;;;;;;;9.90;5.23;;;6.40;99.90;;;;;;5067551;28;20493;-69
2021/05/03 05:12:30;;;;;;;5.70;4.70;;;6.20;99.90;;;;;;5064158;28;20520;-69
2021/05/03 05:15:17;;;;;;;7.30;4.80;;;6.20;99.90;;;;;;5060782;28;20446;-71
2021/05/03 05:18:02;;;;;;;6.50;5.23;;;6.30;99.90;;;;;;5063926;28;20466;-69
2021/05/03 05:20:47;;;;;;;6.10;5.23;;;6.40;99.90;;;;;;5071531;28;20953;-70
2021/05/03 05:23:33;;;;;;;6.73;5.20;;;6.40;99.90;;;;;;5072822;28;20422;-69
2021/05/03 05:26:17;;;;;;;9.27;5.70;;;6.40;99.90;;;;;;5066602;28;20880;-70
2021/05/03 05:29:03;;;;;;;10.30;4.80;;;6.60;99.90;;;;;;5068586;28;20477;-70
2021/05/03 05:31:49;;;;;;;5.50;4.10;;;6.70;99.90;;;;;;5067530;28;20473;-71
2021/05/03 05:34:34;;;;;;;7.83;5.80;;;6.90;99.90;;;;;;5070773;28;21134;-70
2021/05/03 05:37:19;;;;;;;25.87;6.53;;;7.10;99.90;;;;;;5058049;28;20541;-69
2021/05/03 05:40:06;;;;;;;7.33;5.20;;;7.20;99.90;;;;;;5066975;28;20479;-70
2021/05/03 05:42:51;;;;;;;8.87;5.10;;;7.30;99.90;;;;;;5064832;28;20417;-70
2021/05/03 05:45:36;;;;;;;8.93;5.20;;;7.50;99.90;;;;;;5072456;28;20493;-71
2021/05/03 05:48:22;;;;;;;6.30;4.63;;;7.60;99.90;;;;;;5067451;28;20524;-68
2021/05/03 05:51:07;;;;;;;7.83;5.20;;;7.80;99.90;;;;;;5073225;28;20497;-69
2021/05/03 05:53:53;;;;;;;8.57;4.43;;;7.90;99.90;;;;;;5076266;28;20482;-69
2021/05/03 05:56:38;;;;;;;7.57;4.80;;;8.00;99.90;;;;;;5074231;28;20461;-71
2021/05/03 05:59:23;;;;;;;6.67;4.67;;;8.10;99.90;;;;;;5066172;28;20421;-69
2021/05/03 06:02:10;;;;;;;8.07;4.30;;;8.20;99.90;;;;;;5070717;28;20477;-69
2021/05/03 06:04:56;;;;;;;12.07;5.10;;;8.20;99.90;;;;;;5069591;28;20497;-71
2021/05/03 06:07:41;;;;;;;7.40;4.97;;;8.30;99.90;;;;;;5070639;28;20533;-70
2021/05/03 06:10:26;;;;;;;6.40;4.80;;;8.50;99.90;;;;;;5066912;28;20446;-70
2021/05/03 06:13:11;;;;;;;6.37;5.37;;;8.50;99.90;;;;;;5063821;28;20441;-71
2021/05/03 06:15:56;;;;;;;11.53;5.03;;;8.60;99.90;;;;;;5070069;28;20466;-72
2021/05/03 06:18:41;;;;;;;9.00;5.80;;;8.70;99.90;;;;;;5062338;28;20779;-71
2021/05/03 06:21:27;;;;;;;8.87;6.87;;;8.80;99.90;;;;;;5066912;28;20497;-70
2021/05/03 06:24:13;;;;;;;7.10;5.30;;;8.90;99.90;;;;;;5067259;28;20983;-70
2021/05/03 06:26:58;;;;;;;8.60;6.00;;;9.10;99.90;;;;;;5063969;28;20433;-70
2021/05/03 06:29:43;;;;;;;5.97;5.20;;;9.30;99.90;;;;;;5062873;28;20459;-71
2021/05/03 06:32:28;;;;;;;8.77;4.53;;;9.40;99.90;;;;;;5063415;28;20458;-72
2021/05/03 06:35:13;;;;;;;13.63;6.00;;;9.60;99.90;;;;;;5067249;28;20536;-71
2021/05/03 06:37:59;;;;;;;7.77;5.90;;;9.80;99.90;;;;;;5066479;28;20482;-72
2021/05/03 06:40:44;;;;;;;8.63;6.70;;;9.80;99.90;;;;;;5063407;28;20481;-72
2021/05/03 06:43:30;;;;;;;9.37;7.37;;;9.80;99.90;;;;;;5065832;28;20429;-71
2021/05/03 06:46:14;;;;;;;9.67;6.53;;;9.90;99.90;;;;;;5067112;28;20486;-70
2021/05/03 06:48:59;;;;;;;13.77;7.33;;;10.00;99.90;;;;;;5064400;28;20498;-70
2021/05/03 06:51:45;;;;;;;10.57;7.27;;;10.00;99.90;;;;;;5063847;28;20812;-72
2021/05/03 06:54:31;;;;;;;12.33;7.67;;;10.10;99.90;;;;;;5062146;28;20461;-71
2021/05/03 06:57:16;;;;;;;12.20;6.83;;;10.30;99.90;;;;;;5067764;28;20445;-71
2021/05/03 07:00:01;;;;;;;9.20;6.63;;;10.30;98.40;;;;;;5066001;28;20484;-71
2021/05/03 07:02:46;;;;;;;7.47;6.07;;;10.20;97.20;;;;;;5067344;28;20450;-71
2021/05/03 07:05:31;;;;;;;14.40;7.20;;;10.10;96.60;;;;;;5062306;28;20510;-71
2021/05/03 07:08:19;;;;;;;12.50;8.57;;;10.00;97.50;;;;;;5066335;28;20953;-71
2021/05/03 07:11:08;;;;;;;13.53;7.87;;;10.00;98.30;;;;;;5063978;28;20459;-71
2021/05/03 07:13:53;;;;;;;8.53;6.37;;;10.10;96.10;;;;;;5058004;28;20493;-71
2021/05/03 07:16:40;;;;;;;10.87;7.40;;;10.20;95.60;;;;;;5066045;28;20522;-72
2021/05/03 07:19:26;;;;;;;14.23;7.37;;;10.30;94.80;;;;;;5065863;28;20459;-71
2021/05/03 07:22:12;;;;;;;11.57;8.23;;;10.30;94.20;;;;;;5063754;28;20450;-70
2021/05/03 07:24:57;;;;;;;12.60;8.83;;;10.30;93.90;;;;;;5066532;28;20477;-71
2021/05/03 07:27:43;;;;;;;12.00;8.60;;;10.30;94.90;;;;;;5067792;28;20459;-70
2021/05/03 07:30:28;;;;;;;13.13;9.67;;;10.50;94.70;;;;;;5061214;28;20481;-71
2021/05/03 07:33:14;;;;;;;18.43;10.40;;;10.50;95.10;;;;;;5062867;28;20442;-71
2021/05/03 07:35:59;;;;;;;16.90;10.10;;;10.70;95.90;;;;;;5064768;28;20850;-71
2021/05/03 07:38:44;;;;;;;12.70;9.90;;;10.80;94.40;;;;;;5065393;28;20770;-72
2021/05/03 07:41:29;;;;;;;13.33;10.10;;;10.80;93.00;;;;;;5058425;28;20494;-72
2021/05/03 07:44:15;;;;;;;13.40;9.83;;;10.90;92.60;;;;;;5059262;28;20459;-71
2021/05/03 07:47:00;;;;;;;17.90;11.10;;;11.00;93.10;;;;;;5067955;28;20493;-71
2021/05/03 07:49:46;;;;;;;13.87;10.40;;;11.20;91.00;;;;;;5066447;28;20473;-72
2021/05/03 07:52:31;;;;;;;17.77;10.27;;;11.30;91.20;;;;;;5064591;28;21200;-71
2021/05/03 07:55:16;;;;;;;16.30;9.90;;;11.40;90.00;;;;;;5066573;28;20894;-71
2021/05/03 07:58:02;;;;;;;12.53;9.67;;;11.50;86.80;;;;;;5067390;28;20814;-71
2021/05/03 08:00:49;;;;;;;12.70;8.93;;;11.60;79.30;;;;;;5066612;28;20441;-72
2021/05/03 08:03:38;;;;;;;12.37;8.67;;;11.60;78.90;;;;;;5064806;28;20455;-72
2021/05/03 08:06:23;;;;;;;13.00;8.70;;;11.60;80.00;;;;;;5066288;28;20441;-72
2021/05/03 08:09:09;;;;;;;12.33;8.97;;;11.80;78.50;;;;;;5065955;28;20561;-70
2021/05/03 08:11:55;;;;;;;11.13;8.83;;;11.80;65.70;;;;;;5065870;28;20463;-71
2021/05/03 08:14:40;;;;;;;12.63;8.87;;;11.70;67.80;;;;;;5067266;28;21019;-71
2021/05/03 08:17:26;;;;;;;11.67;9.53;;;11.80;66.70;;;;;;5067805;28;20499;-71
2021/05/03 08:20:12;;;;;;;14.53;10.37;;;11.60;70.60;;;;;;5068335;28;20529;-71
2021/05/03 08:22:57;;;;;;;13.10;9.70;;;11.50;67.70;;;;;;5067167;28;20964;-71
2021/05/03 08:25:42;;;;;;;10.40;7.40;;;11.60;56.90;;;;;;5064301;28;20446;-71
2021/05/03 08:28:28;;;;;;;11.03;9.40;;;11.80;58.20;;;;;;5065067;28;20477;-70
2021/05/03 08:31:13;;;;;;;10.07;9.00;;;11.90;55.10;;;;;;5064459;28;20487;-71
2021/05/03 08:33:59;;;;;;;11.23;8.73;;;12.00;55.90;;;;;;5065351;28;20497;-71
2021/05/03 08:36:44;;;;;;;11.63;9.13;;;12.20;54.20;;;;;;5064079;28;20498;-70
2021/05/03 08:39:29;;;;;;;10.80;8.30;;;12.20;49.80;;;;;;5063740;28;20488;-71
2021/05/03 08:42:16;;;;;;;13.17;9.50;;;12.00;47.20;;;;;;5065803;28;20451;-70
2021/05/03 08:45:02;;;;;;;12.53;9.33;;;12.20;55.10;;;;;;5071410;28;20429;-70
2021/05/03 08:47:57;;;;;;;15.90;10.30;;;12.00;51.30;;;;;;5063285;28;20482;-70
2021/05/03 08:50:51;;;;;;;17.67;12.77;;;11.90;50.90;;;;;;5068718;28;20759;-70
2021/05/03 08:53:42;;;;;;;16.70;10.67;;;12.00;54.20;;;;;;5063528;28;20468;-70
2021/05/03 08:56:26;;;;;;;12.53;8.43;;;12.20;58.20;;;;;;5063281;28;20565;-70
2021/05/03 08:59:12;;;;;;;14.67;10.03;;;12.40;56.90;;;;;;5064275;28;20477;-71
2021/05/03 09:01:58;;;;;;;11.47;10.27;;;12.70;52.80;;;;;;5061686;28;20851;-71
2021/05/03 09:04:43;;;;;;;13.13;9.80;;;12.80;47.70;;;;;;5063075;28;20494;-70
2021/05/03 09:07:29;;;;;;;10.63;8.80;;;12.90;48.50;;;;;;5074366;28;20432;-70
2021/05/03 09:10:15;;;;;;;14.03;9.83;;;12.80;47.80;;;;;;5066437;28;20427;-69
2021/05/03 09:13:11;;;;;;;11.40;9.40;;;12.50;48.70;;;;;;5066985;28;20944;-69
2021/05/03 09:16:29;;;;;;;14.83;11.27;;;12.40;49.10;;;;;;5070975;28;20468;-70
2021/05/03 09:19:14;;;;;;;12.90;9.97;;;12.20;50.20;;;;;;5009381;28;20450;-71
2021/05/03 09:21:59;;;;;;;13.17;11.20;;;12.00;50.50;;;;;;5006242;28;20497;-71
2021/05/03 09:24:46;;;;;;;16.93;11.67;;;11.80;51.70;;;;;;5057865;28;20462;-70
2021/05/03 09:27:31;;;;;;;13.03;10.50;;;11.80;54.10;;;;;;5066008;28;20513;-71
2021/05/03 09:30:31;;;;;;;22.30;10.03;;;11.70;53.60;;;;;;5067196;28;20477;-70
2021/05/03 09:33:24;;;;;;;11.13;9.90;;;11.70;55.20;;;;;;5064800;28;20879;-70
2021/05/03 09:36:12;;;;;;;13.50;9.87;;;11.60;52.80;;;;;;5067064;28;20466;-71
2021/05/03 09:38:58;;;;;;;13.97;10.63;;;11.50;54.20;;;;;;5064664;28;20428;-69
2021/05/03 09:41:48;;;;;;;13.20;9.63;;;11.60;55.80;;;;;;5065088;28;20496;-70
2021/05/03 09:44:33;;;;;;;13.03;10.50;;;11.80;59.30;;;;;;5065482;28;20447;-70
2021/05/03 09:47:19;;;;;;;11.90;9.70;;;12.10;58.50;;;;;;5067133;28;20461;-70
2021/05/03 09:50:08;;;;;;;12.23;9.40;;;12.50;58.00;;;;;;5064526;28;20513;-70
2021/05/03 09:53:05;;;;;;;11.20;8.50;;;12.80;48.50;;;;;;5065445;28;20538;-70
2021/05/03 09:55:52;;;;;;;13.00;9.73;;;13.00;47.60;;;;;;5065312;28;20556;-69
2021/05/03 09:58:40;;;;;;;11.70;9.60;;;13.00;45.80;;;;;;5067353;28;20529;-71
2021/05/03 10:01:25;;;;;;;10.53;8.73;;;13.00;45.40;;;;;;5066765;28;21164;-71
2021/05/03 10:04:11;;;;;;;11.53;8.63;;;13.00;50.10;;;;;;5065660;28;20502;-70
2021/05/03 10:06:56;;;;;;;12.73;8.00;;;13.00;46.30;;;;;;5066215;28;20453;-71
2021/05/03 10:09:42;;;;;;;10.73;7.43;;;13.00;47.80;;;;;;5071238;28;20555;-70
2021/05/03 10:12:28;;;;;;;12.33;8.30;;;13.00;47.80;;;;;;5065267;28;20472;-70
2021/05/03 10:15:16;;;;;;;9.97;8.00;;;12.90;45.70;;;;;;5065322;28;20421;-70
2021/05/03 10:18:01;;;;;;;8.77;6.33;;;13.10;48.80;;;;;;5066580;28;20549;-71
2021/05/03 10:20:47;;;;;;;12.83;7.30;;;13.40;45.50;;;;;;5066026;28;20792;-71
2021/05/03 10:23:33;;;;;;;9.93;6.20;;;13.60;46.50;;;;;;5063643;28;20956;-71
2021/05/03 10:26:18;;;;;;;10.03;6.97;;;13.80;42.30;;;;;;5065409;28;20466;-70
2021/05/03 10:29:04;;;;;;;9.30;6.30;;;13.70;40.40;;;;;;5064986;28;20441;-70
2021/05/03 10:32:02;;;;;;;10.40;6.90;;;13.60;41.40;;;;;;5064724;28;20827;-70
2021/05/03 10:34:49;;;;;;;8.13;6.83;;;13.50;42.70;;;;;;5069076;28;20458;-70
2021/05/03 10:37:43;;;;;;;7.03;6.33;;;13.40;42.70;;;;;;5067780;28;20569;-70
2021/05/03 10:40:51;;;;;;;8.70;6.30;;;13.00;41.70;;;;;;5069425;28;20830;-70
2021/05/03 10:43:39;;;;;;;7.60;6.03;;;12.90;43.90;;;;;;5067575;28;20469;-70
2021/05/03 10:49:46;;;;;;;7.27;6.27;;;12.80;43.10;;;;;;5065898;28;20825;-70
2021/05/03 10:52:33;;;;;;;10.30;7.90;;;12.80;43.80;;;;;;5068134;28;21298;-69
2021/05/03 10:55:18;;;;;;;10.33;6.80;;;12.70;44.70;;;;;;5067005;28;20463;-70
2021/05/03 10:58:03;;;;;;;6.60;5.60;;;12.70;44.40;;;;;;5064973;28;21239;-70
2021/05/03 11:00:57;;;;;;;9.67;6.70;;;12.70;47.00;;;;;;5066401;28;20450;-70
2021/05/03 11:04:08;;;;;;;7.20;6.23;;;12.70;45.60;;;;;;5070230;28;20458;-71
2021/05/03 11:07:08;;;;;;;6.40;5.57;;;12.70;45.50;;;;;;5069512;28;20481;-69
2021/05/03 11:09:53;;;;;;;7.97;5.93;;;12.80;47.40;;;;;;5063478;28;20570;-70
2021/05/03 11:12:38;;;;;;;9.23;7.43;;;13.00;45.80;;;;;;5058276;28;20720;-71
2021/05/03 11:15:28;;;;;;;10.53;7.17;;;13.00;44.00;;;;;;5070564;28;20488;-71
2021/05/03 11:18:20;;;;;;;12.63;6.53;;;12.90;43.60;;;;;;5067338;28;20835;-72
2021/05/03 11:24:18;;;;;;;7.20;5.90;;;13.10;44.30;;;;;;5070438;28;20438;-69
2021/05/03 11:27:07;;;;;;;7.47;6.20;;;13.30;42.60;;;;;;5066328;28;20556;-71
2021/05/03 11:29:58;;;;;;;8.43;6.27;;;13.00;42.10;;;;;;5072793;28;21023;-71
2021/05/03 11:32:44;;;;;;;7.03;5.50;;;13.20;44.30;;;;;;5067829;28;20421;-71
2021/05/03 11:35:36;;;;;;;9.50;6.20;;;13.40;42.70;;;;;;5062397;28;20991;-70
2021/05/03 11:38:27;;;;;;;10.17;5.70;;;13.40;42.70;;;;;;5066101;28;20446;-70
2021/05/03 11:41:24;;;;;;;10.13;6.10;;;13.70;42.80;;;;;;5067924;28;20447;-70
2021/05/03 11:44:24;;;;;;;6.30;4.70;;;14.00;41.10;;;;;;5062701;28;20519;-70
2021/05/03 11:47:10;;;;;;;7.10;5.57;;;14.10;38.30;;;;;;5071062;28;20470;-71
2021/05/03 11:49:55;;;;;;;5.40;4.23;;;14.10;38.40;;;;;;5068098;28;20466;-71
2021/05/03 11:52:41;;;;;;;13.47;4.80;;;14.10;37.00;;;;;;5065616;28;20544;-71
2021/05/03 11:55:26;;;;;;;6.17;4.87;;;14.10;36.70;;;;;;5059284;28;20462;-70
2021/05/03 11:58:12;;;;;;;12.43;9.00;;;14.10;36.60;;;;;;5064542;28;20555;-71
2021/05/03 12:00:57;;;;;;;16.97;6.77;;;13.90;38.00;;;;;;5065531;28;20433;-70
2021/05/03 12:03:44;;;;;;;5.77;4.80;;;13.90;37.00;;;;;;5063248;28;20535;-71
2021/05/03 12:06:37;;;;;;;8.13;5.17;;;13.90;35.80;;;;;;5064365;28;20454;-71
2021/05/03 12:09:22;;;;;;;7.43;6.03;;;14.00;38.10;;;;;;5062954;28;20466;-70
2021/05/03 12:12:07;;;;;;;5.77;4.70;;;14.10;37.30;;;;;;5065073;28;20458;-71
2021/05/03 12:14:53;;;;;;;9.63;5.80;;;14.10;37.30;;;;;;5066177;28;20818;-72
2021/05/03 12:17:38;;;;;;;6.90;5.23;;;13.80;38.20;;;;;;5067635;28;20472;-71
2021/05/03 12:20:26;;;;;;;8.47;5.53;;;14.00;38.80;;;;;;5066023;28;20604;-71
2021/05/03 12:23:13;;;;;;;14.90;5.10;;;14.10;38.00;;;;;;5066711;28;20454;-71
2021/05/03 12:26:00;;;;;;;6.90;5.27;;;14.00;38.40;;;;;;5062841;28;20533;-71
2021/05/03 12:28:47;;;;;;;5.93;4.30;;;14.10;38.40;;;;;;5060028;28;20450;-71
2021/05/03 12:31:34;;;;;;;6.23;4.93;;;14.10;35.90;;;;;;5063214;28;20505;-70
2021/05/03 12:34:21;;;;;;;6.97;5.60;;;14.00;36.10;;;;;;5066348;28;21046;-70
2021/05/03 12:37:15;;;;;;;7.93;4.00;;;14.00;36.50;;;;;;5064998;28;20526;-70
2021/05/03 12:40:06;;;;;;;5.47;3.60;;;14.10;35.40;;;;;;5067967;28;21146;-71
2021/05/03 12:42:54;;;;;;;4.80;3.80;;;14.30;35.40;;;;;;5064560;28;20453;-71
2021/05/03 12:45:52;;;;;;;7.93;4.27;;;14.60;33.80;;;;;;5059421;28;20475;-69
2021/05/03 12:48:54;;;;;;;5.00;3.37;;;15.00;34.20;;;;;;5069605;28;20463;-69
2021/05/03 12:51:59;;;;;;;4.70;3.13;;;15.20;32.60;;;;;;5065513;28;20821;-69
2021/05/03 12:54:54;;;;;;;5.07;3.30;;;15.20;32.40;;;;;;5058181;28;20455;-69
2021/05/03 12:57:47;;;;;;;8.23;3.67;;;15.20;31.60;;;;;;5066687;28;20445;-70
2021/05/03 13:00:49;;;;;;;5.60;3.50;;;15.30;31.90;;;;;;5062733;28;20473;-70
2021/05/03 13:03:43;;;;;;;5.80;3.53;;;15.60;32.10;;;;;;5064171;28;20815;-70
2021/05/03 13:06:38;;;;;;;4.20;3.20;;;15.90;33.30;;;;;;5063668;28;20919;-71
2021/05/03 13:09:36;;;;;;;6.00;3.67;;;16.30;31.00;;;;;;5069337;28;21016;-71
2021/05/03 13:25:05;;;;;;;8.87;4.10;;;16.10;31.70;;;;;;5066314;28;20453;-69
2021/05/03 13:31:01;;;;;;;5.83;3.87;;;16.10;32.70;;;;;;5062412;28;20828;-69
2021/05/03 13:33:46;;;;;;;5.50;3.63;;;15.60;31.20;;;;;;5058432;28;20882;-69
2021/05/03 13:36:33;;;;;;;5.10;3.40;;;15.40;33.20;;;;;;5062323;28;20797;-70
2021/05/03 13:39:19;;;;;;;7.63;3.67;;;15.20;31.40;;;;;;5058774;28;20459;-70
2021/05/03 13:42:08;;;;;;;4.00;3.00;;;14.80;31.70;;;;;;5067519;28;20472;-69
2021/05/03 13:44:53;;;;;;;5.40;3.33;;;14.80;34.00;;;;;;5070941;28;20974;-70
2021/05/03 13:47:38;;;;;;;8.10;3.80;;;14.90;33.70;;;;;;5066027;28;20516;-69
2021/05/03 13:50:23;;;;;;;3.87;2.90;;;15.20;33.50;;;;;;5064201;28;20457;-69
2021/05/03 13:53:08;;;;;;;4.70;3.50;;;15.70;31.70;;;;;;5065653;28;20450;-70
2021/05/03 13:55:55;;;;;;;3.30;2.90;;;16.00;30.60;;;;;;5066755;28;20441;-70
2021/05/03 13:58:40;;;;;;;5.33;3.40;;;15.90;29.90;;;;;;5060492;28;20459;-70
2021/05/03 14:01:25;;;;;;;6.93;4.23;;;15.70;30.00;;;;;;5066592;28;20446;-70
2021/05/03 14:04:10;;;;;;;7.57;3.47;;;15.60;31.90;;;;;;5066985;28;20429;-69
2021/05/03 14:06:56;;;;;;;6.50;3.50;;;15.60;31.90;;;;;;5060885;28;20997;-70
2021/05/03 14:09:41;;;;;;;4.00;3.10;;;15.40;30.10;;;;;;5065057;28;20484;-71
2021/05/03 14:12:27;;;;;;;3.90;3.50;;;15.30;30.30;;;;;;5065685;28;20516;-69
2021/05/03 14:15:17;;;;;;;6.17;3.30;;;15.20;30.20;;;;;;5066679;28;20792;-69
2021/05/03 14:18:02;;;;;;;4.57;2.90;;;15.20;30.40;;;;;;5064562;28;20429;-70
2021/05/03 14:20:49;;;;;;;5.80;3.40;;;15.00;31.50;;;;;;5068643;28;20434;-70
2021/05/03 14:23:34;;;;;;;34.87;4.50;;;15.00;31.90;;;;;;5067215;28;20948;-70
2021/05/03 14:26:23;;;;;;;6.30;3.30;;;15.00;34.20;;;;;;5068472;28;20445;-70
2021/05/03 14:29:19;;;;;;;11.23;3.87;;;15.00;33.20;;;;;;5068588;28;20491;-70
2021/05/03 14:32:08;;;;;;;4.00;2.97;;;15.00;31.60;;;;;;5070247;28;20555;-70
2021/05/03 14:35:00;;;;;;;5.43;2.70;;;15.10;31.40;;;;;;5068343;28;20449;-69
2021/05/03 14:37:45;;;;;;;7.40;3.03;;;15.20;33.00;;;;;;5068090;28;20882;-69
2021/05/03 14:40:30;;;;;;;3.97;2.97;;;15.10;32.40;;;;;;5066712;28;20432;-70
2021/05/03 14:43:16;;;;;;;6.00;2.90;;;15.20;31.60;;;;;;5064816;28;20446;-70
2021/05/03 14:46:07;;;;;;;4.93;2.70;;;15.20;31.40;;;;;;5067213;28;20447;-70
2021/05/03 14:48:57;;;;;;;12.93;3.50;;;15.20;31.10;;;;;;5070097;28;20467;-70
2021/05/03 14:51:46;;;;;;;7.23;2.90;;;15.10;30.00;;;;;;5065634;28;20409;-69
2021/05/03 14:54:38;;;;;;;5.93;3.20;;;15.00;30.60;;;;;;5072640;28;20938;-70
2021/05/03 14:57:23;;;;;;;4.27;2.70;;;15.10;32.10;;;;;;5067004;28;20458;-70
2021/05/03 15:00:10;;;;;;;5.33;3.17;;;15.10;31.70;;;;;;5067970;28;20490;-69
2021/05/03 15:02:56;;;;;;;4.30;2.80;;;15.00;29.90;;;;;;5069197;28;20455;-69
2021/05/03 15:05:43;;;;;;;9.97;2.87;;;14.80;30.00;;;;;;5068710;28;20504;-69